Time;durP1;ratioP1;P1;durP2;ratioP2;P2;SDS_P1;SDS_P2;PMS_P1;PMS_P2;Temp;Humidity;BMP_temperature;BMP_pressure;BME280_temperature;BME280_humidity;BME280_pressure;Samples;Min_cycle;Max_cycle;Signal;HPM_P1;HPM_P2
2023/09/09 00:01:30;;;;;;;4.72;3.22;;;;;;;;;;10398355;22;20777;-74
2023/09/09 00:05:34;;;;;;;6.05;3.00;;;;;;;;;;10402367;22;20325;-74
2023/09/09 00:09:35;;;;;;;;;;;;;;;;;;10400956;22;20096;-74
2023/09/09 00:13:36;;;;;;;5.55;3.10;;;;;;;;;;10392148;22;19903;-74
2023/09/09 00:17:36;;;;;;;3.80;3.03;;;;;;;;;;10392444;22;20093;-73
2023/09/09 00:21:37;;;;;;;4.70;3.42;;;;;;;;;;10391763;22;20034;-73
2023/09/09 00:25:38;;;;;;;3.78;3.47;;;;;;;;;;10395150;22;19999;-73
2023/09/09 00:29:38;;;;;;;5.80;3.25;;;;;;;;;;10392220;22;20729;-74
2023/09/09 00:33:39;;;;;;;3.85;3.53;;;;;;;;;;10393215;22;20078;-73
2023/09/09 00:37:39;;;;;;;4.55;3.40;;;;;;;;;;10377038;22;20061;-73
2023/09/09 00:41:39;;;;;;;5.97;3.75;;;;;;;;;;10389114;22;20379;-74
2023/09/09 00:45:42;;;;;;;4.03;3.65;;;;;;;;;;10389529;22;20019;-74
2023/09/09 00:49:43;;;;;;;6.00;4.05;;;;;;;;;;10386662;22;20474;-74
2023/09/09 00:53:43;;;;;;;3.88;3.33;;;;;;;;;;10387197;22;20031;-74
2023/09/09 00:57:44;;;;;;;4.13;3.33;;;;;;;;;;10388301;22;20042;-73
2023/09/09 01:01:44;;;;;;;4.80;3.65;;;;;;;;;;10361601;22;20022;-74
2023/09/09 01:05:45;;;;;;;6.40;3.47;;;;;;;;;;10388722;22;20058;-73
2023/09/09 01:09:48;;;;;;;3.97;3.53;;;;;;;;;;10385920;22;20761;-74
2023/09/09 01:13:48;;;;;;;6.50;4.00;;;;;;;;;;10386418;22;20046;-74
2023/09/09 01:17:49;;;;;;;5.38;3.38;;;;;;;;;;10391808;22;20019;-74
2023/09/09 01:21:51;;;;;;;4.15;3.42;;;;;;;;;;10391953;22;20101;-75
2023/09/09 01:25:51;;;;;;;4.95;3.60;;;;;;;;;;10388040;22;20778;-74
2023/09/09 01:29:52;;;;;;;4.57;3.50;;;;;;;;;;10391295;22;20325;-74
2023/09/09 01:33:56;;;;;;;4.33;3.70;;;;;;;;;;10391418;22;20474;-74
2023/09/09 01:37:57;;;;;;;5.53;3.63;;;;;;;;;;10391087;22;20088;-73
2023/09/09 01:41:57;;;;;;;5.53;3.63;;;;;;;;;;10391320;22;20003;-73
2023/09/09 01:45:57;;;;;;;4.60;3.60;;;;;;;;;;10389784;22;20011;-74
2023/09/09 01:49:57;;;;;;;5.03;3.65;;;;;;;;;;10389684;22;20035;-74
2023/09/09 01:53:58;;;;;;;4.38;3.70;;;;;;;;;;10387849;22;20014;-73
2023/09/09 01:57:59;;;;;;;7.10;3.65;;;;;;;;;;10386519;22;20008;-73
2023/09/09 02:01:59;;;;;;;8.33;3.50;;;;;;;;;;10363085;22;20408;-74
2023/09/09 02:05:59;;;;;;;5.65;3.90;;;;;;;;;;10390397;22;19999;-73
2023/09/09 02:09:59;;;;;;;3.83;3.42;;;;;;;;;;10388333;22;20590;-74
2023/09/09 02:13:59;;;;;;;5.05;3.60;;;;;;;;;;10389149;22;20010;-73
2023/09/09 02:18:00;;;;;;;5.03;3.70;;;;;;;;;;10391302;22;20015;-74
2023/09/09 02:22:04;;;;;;;5.20;3.70;;;;;;;;;;10363797;22;20234;-73
2023/09/09 02:26:04;;;;;;;6.07;3.60;;;;;;;;;;10393261;22;20007;-74
2023/09/09 02:30:05;;;;;;;5.10;3.90;;;;;;;;;;10390990;22;20018;-73
2023/09/09 02:34:05;;;;;;;5.78;3.92;;;;;;;;;;10395104;22;19991;-73
2023/09/09 02:38:06;;;;;;;3.80;3.42;;;;;;;;;;10391777;22;20026;-75
2023/09/09 02:42:06;;;;;;;8.88;4.25;;;;;;;;;;10393576;22;20003;-74
2023/09/09 02:46:06;;;;;;;5.37;3.90;;;;;;;;;;10392395;22;20015;-73
2023/09/09 02:50:07;;;;;;;6.68;4.03;;;;;;;;;;10391913;22;20404;-73
2023/09/09 02:54:08;;;;;;;4.50;4.07;;;;;;;;;;10395340;22;20340;-74
2023/09/09 02:58:12;;;;;;;6.43;3.88;;;;;;;;;;10394849;22;20096;-74
2023/09/09 03:02:13;;;;;;;4.25;3.85;;;;;;;;;;10389391;22;20103;-74
2023/09/09 03:06:13;;;;;;;6.90;4.20;;;;;;;;;;10393520;22;19999;-74
2023/09/09 03:10:14;;;;;;;5.78;4.05;;;;;;;;;;10395749;22;20364;-73
2023/09/09 03:14:14;;;;;;;5.25;4.38;;;;;;;;;;10395395;22;20007;-73
2023/09/09 03:18:14;;;;;;;5.73;4.10;;;;;;;;;;10378533;22;20015;-73
2023/09/09 03:22:15;;;;;;;6.80;4.28;;;;;;;;;;10393597;22;20226;-74
2023/09/09 03:26:19;;;;;;;4.80;4.30;;;;;;;;;;10375827;22;20336;-73
2023/09/09 03:30:20;;;;;;;6.15;4.22;;;;;;;;;;10389436;22;20435;-73
2023/09/09 03:34:20;;;;;;;4.93;4.43;;;;;;;;;;10400568;22;19991;-74
2023/09/09 03:38:20;;;;;;;5.05;4.47;;;;;;;;;;10395585;22;20442;-72
2023/09/09 03:42:21;;;;;;;6.18;4.22;;;;;;;;;;10399981;22;20802;-74
2023/09/09 03:46:21;;;;;;;7.95;4.50;;;;;;;;;;10392200;22;20026;-73
2023/09/09 03:50:21;;;;;;;4.50;4.10;;;;;;;;;;10393998;22;20619;-73
2023/09/09 03:54:21;;;;;;;6.22;4.55;;;;;;;;;;10394250;22;19995;-75
2023/09/09 03:58:23;;;;;;;4.70;4.27;;;;;;;;;;10397782;22;20094;-73
2023/09/09 04:02:23;;;;;;;8.00;4.57;;;;;;;;;;10397079;22;20237;-73
2023/09/09 04:06:24;;;;;;;7.57;4.43;;;;;;;;;;10392069;22;20010;-73
2023/09/09 04:10:24;;;;;;;6.30;4.57;;;;;;;;;;10391080;22;20015;-72
2023/09/09 04:14:24;;;;;;;7.20;4.80;;;;;;;;;;10395256;22;20003;-73
2023/09/09 04:18:28;;;;;;;5.97;5.00;;;;;;;;;;10391948;22;20268;-73
2023/09/09 04:22:29;;;;;;;7.35;4.70;;;;;;;;;;10393186;22;20002;-73
2023/09/09 04:26:29;;;;;;;6.28;4.70;;;;;;;;;;10394787;22;20022;-73
2023/09/09 04:30:29;;;;;;;7.57;4.40;;;;;;;;;;10391580;22;20015;-73
2023/09/09 04:34:29;;;;;;;4.72;4.15;;;;;;;;;;10389691;22;20045;-73
2023/09/09 04:38:29;;;;;;;7.35;4.07;;;;;;;;;;10389759;22;19995;-73
2023/09/09 04:42:31;;;;;;;6.38;4.28;;;;;;;;;;10389245;22;20008;-73
2023/09/09 04:46:32;;;;;;;4.75;4.13;;;;;;;;;;10387387;22;20042;-73
2023/09/09 04:50:33;;;;;;;6.15;4.13;;;;;;;;;;10387781;22;20011;-73
2023/09/09 04:54:34;;;;;;;6.40;4.45;;;;;;;;;;10388288;22;20551;-73
2023/09/09 04:58:34;;;;;;;4.90;3.97;;;;;;;;;;10388582;22;20014;-73
2023/09/09 05:02:36;;;;;;;6.72;3.72;;;;;;;;;;10383570;22;20676;-73
2023/09/09 05:06:36;;;;;;;3.83;3.45;;;;;;;;;;10387712;22;20007;-73
2023/09/09 05:10:37;;;;;;;5.78;4.13;;;;;;;;;;10388190;22;20157;-72
2023/09/09 05:14:37;;;;;;;4.00;3.60;;;;;;;;;;10380847;22;20009;-72
2023/09/09 05:18:38;;;;;;;4.70;3.85;;;;;;;;;;10379858;22;20456;-72
2023/09/09 05:22:38;;;;;;;4.83;4.33;;;;;;;;;;10384305;22;20726;-72
2023/09/09 05:26:38;;;;;;;5.63;4.22;;;;;;;;;;10383238;22;20717;-72
2023/09/09 05:30:40;;;;;;;10.30;4.40;;;;;;;;;;10381244;22;20019;-72
2023/09/09 05:34:40;;;;;;;6.88;4.28;;;;;;;;;;10380956;22;20011;-72
2023/09/09 05:38:40;;;;;;;7.20;4.30;;;;;;;;;;10383212;22;20007;-72
2023/09/09 05:42:40;;;;;;;4.35;3.95;;;;;;;;;;10382910;22;19999;-72
2023/09/09 05:46:41;;;;;;;4.90;4.05;;;;;;;;;;10384645;22;20011;-72
2023/09/09 05:50:41;;;;;;;4.93;3.85;;;;;;;;;;10378785;22;20015;-71
2023/09/09 05:54:42;;;;;;;5.20;4.57;;;;;;;;;;10385176;22;19999;-71
2023/09/09 05:58:42;;;;;;;5.43;4.18;;;;;;;;;;10383753;22;20007;-72
2023/09/09 06:02:43;;;;;;;5.95;4.32;;;;;;;;;;10380534;22;20015;-72
2023/09/09 06:06:43;;;;;;;7.22;4.70;;;;;;;;;;10383750;22;20003;-72
2023/09/09 06:10:44;;;;;;;5.43;4.82;;;;;;;;;;10378557;22;20007;-72
2023/09/09 06:14:44;;;;;;;8.75;5.15;;;;;;;;;;10382729;22;19995;-73
2023/09/09 06:18:44;;;;;;;5.93;4.80;;;;;;;;;;10380755;22;20019;-72
2023/09/09 06:22:44;;;;;;;11.68;4.93;;;;;;;;;;10385700;22;20229;-73
2023/09/09 06:26:45;;;;;;;4.60;4.20;;;;;;;;;;10384290;22;20000;-73
2023/09/09 06:30:45;;;;;;;5.97;4.07;;;;;;;;;;10386816;22;20025;-73
2023/09/09 06:34:46;;;;;;;7.40;3.90;;;;;;;;;;10385892;22;20005;-73
2023/09/09 06:38:46;;;;;;;5.47;3.78;;;;;;;;;;10360685;22;20100;-73
2023/09/09 06:42:47;;;;;;;7.68;3.60;;;;;;;;;;10387388;22;19999;-73
2023/09/09 06:46:48;;;;;;;5.77;3.90;;;;;;;;;;10384029;22;20043;-72
2023/09/09 06:50:49;;;;;;;3.63;3.30;;;;;;;;;;10390885;22;20283;-75
2023/09/09 06:54:50;;;;;;;3.67;3.38;;;;;;;;;;10389704;22;20007;-75
2023/09/09 06:58:51;;;;;;;6.60;3.63;;;;;;;;;;10387044;22;20018;-75
2023/09/09 07:02:52;;;;;;;3.63;3.15;;;;;;;;;;10382509;22;20042;-75
2023/09/09 07:06:52;;;;;;;4.72;3.28;;;;;;;;;;10386870;22;20057;-74
2023/09/09 07:10:53;;;;;;;4.70;2.95;;;;;;;;;;10386381;22;20026;-74
2023/09/09 07:14:53;;;;;;;4.70;2.88;;;;;;;;;;10386522;22;20007;-74
2023/09/09 07:18:54;;;;;;;3.43;3.13;;;;;;;;;;10385362;22;20133;-75
2023/09/09 07:22:54;;;;;;;3.30;2.80;;;;;;;;;;10390400;22;20030;-74
2023/09/09 07:26:54;;;;;;;4.18;3.33;;;;;;;;;;10392690;22;19991;-75
2023/09/09 07:30:55;;;;;;;5.10;3.05;;;;;;;;;;10391896;22;20727;-75
2023/09/09 07:34:55;;;;;;;3.80;2.83;;;;;;;;;;10393962;22;20014;-74
2023/09/09 07:38:56;;;;;;;3.92;3.25;;;;;;;;;;10389370;22;20014;-73
2023/09/09 07:42:57;;;;;;;3.30;3.00;;;;;;;;;;10384883;22;20526;-73
2023/09/09 07:46:57;;;;;;;3.50;3.10;;;;;;;;;;10387698;22;20062;-73
2023/09/09 07:50:59;;;;;;;3.97;2.90;;;;;;;;;;10388789;22;20613;-74
2023/09/09 07:54:59;;;;;;;3.60;3.30;;;;;;;;;;10387027;22;20035;-73
2023/09/09 07:59:05;;;;;;;4.67;3.23;;;;;;;;;;10390000;22;19999;-74
2023/09/09 08:03:06;;;;;;;5.85;3.05;;;;;;;;;;10358565;22;20229;-75
2023/09/09 08:07:07;;;;;;;3.80;3.20;;;;;;;;;;10391712;22;21055;-74
2023/09/09 08:11:07;;;;;;;3.30;2.97;;;;;;;;;;10387971;22;20065;-74
2023/09/09 08:15:09;;;;;;;3.57;3.20;;;;;;;;;;10388166;22;20094;-75
2023/09/09 08:19:10;;;;;;;3.53;3.22;;;;;;;;;;10386478;22;20010;-74
2023/09/09 08:23:10;;;;;;;5.07;3.47;;;;;;;;;;10391255;22;20493;-74
2023/09/09 08:27:10;;;;;;;3.50;2.83;;;;;;;;;;10390753;22;20938;-75
2023/09/09 08:31:10;;;;;;;4.77;3.37;;;;;;;;;;10387531;22;20012;-74
2023/09/09 08:35:10;;;;;;;4.72;3.25;;;;;;;;;;10383405;22;20030;-74
2023/09/09 08:39:11;;;;;;;7.63;3.20;;;;;;;;;;10388465;22;19999;-74
2023/09/09 08:43:31;;;;;;;3.90;2.77;;;;;;;;;;10386697;22;20096;-74
2023/09/09 08:47:35;;;;;;;8.55;3.20;;;;;;;;;;10384666;22;20015;-74
2023/09/09 08:51:40;;;;;;;4.70;3.30;;;;;;;;;;10383323;22;20042;-75
2023/09/09 08:55:41;;;;;;;4.25;3.05;;;;;;;;;;10385170;22;19991;-74
2023/09/09 08:59:42;;;;;;;3.53;3.23;;;;;;;;;;10385504;22;20533;-74
2023/09/09 09:03:42;;;;;;;3.50;3.00;;;;;;;;;;10384027;22;20011;-74
2023/09/09 09:07:42;;;;;;;5.03;3.30;;;;;;;;;;10385829;22;20008;-74
2023/09/09 09:11:42;;;;;;;4.57;3.17;;;;;;;;;;10385156;22;20084;-74
2023/09/09 09:15:43;;;;;;;4.67;3.50;;;;;;;;;;10388080;22;20049;-74
2023/09/09 09:19:43;;;;;;;4.33;3.60;;;;;;;;;;10386526;22;20506;-74
2023/09/09 09:23:44;;;;;;;5.50;2.92;;;;;;;;;;10387264;22;20030;-74
2023/09/09 09:27:44;;;;;;;4.00;3.33;;;;;;;;;;10387919;22;20006;-74
2023/09/09 09:31:51;;;;;;;4.22;3.15;;;;;;;;;;10386045;22;20039;-75
2023/09/09 09:35:52;;;;;;;5.00;3.40;;;;;;;;;;10386723;22;20014;-74
2023/09/09 09:39:52;;;;;;;6.13;3.40;;;;;;;;;;10386530;22;20010;-74
2023/09/09 09:43:52;;;;;;;3.70;3.37;;;;;;;;;;10385836;22;20963;-74
2023/09/09 09:47:53;;;;;;;3.93;3.10;;;;;;;;;;10358459;22;20019;-74
2023/09/09 09:51:54;;;;;;;6.27;3.27;;;;;;;;;;10382775;22;20080;-75
2023/09/09 09:55:55;;;;;;;5.37;3.40;;;;;;;;;;10383844;22;20105;-74
2023/09/09 09:59:56;;;;;;;8.18;3.22;;;;;;;;;;10383095;22;20034;-74
2023/09/09 10:04:01;;;;;;;4.57;3.37;;;;;;;;;;10385080;22;20007;-75
2023/09/09 10:08:04;;;;;;;3.85;3.42;;;;;;;;;;10386851;22;20011;-74
2023/09/09 10:12:08;;;;;;;4.57;3.33;;;;;;;;;;10383016;22;20014;-74
2023/09/09 10:16:09;;;;;;;6.00;3.47;;;;;;;;;;10386059;22;20015;-74
2023/09/09 10:20:11;;;;;;;4.90;3.20;;;;;;;;;;10383456;22;20007;-75
2023/09/09 10:24:12;;;;;;;4.03;3.33;;;;;;;;;;10384700;22;21210;-74
2023/09/09 10:28:12;;;;;;;5.70;3.17;;;;;;;;;;10384835;22;20015;-74
2023/09/09 10:32:14;;;;;;;7.27;3.23;;;;;;;;;;10382507;22;20241;-74
2023/09/09 10:36:17;;;;;;;9.57;3.30;;;;;;;;;;10385954;22;19999;-74
2023/09/09 10:40:17;;;;;;;6.75;3.50;;;;;;;;;;10385434;22;20110;-75
2023/09/09 10:44:17;;;;;;;6.57;3.60;;;;;;;;;;10385892;22;19995;-75
2023/09/09 10:48:21;;;;;;;4.25;3.15;;;;;;;;;;10384851;22;20043;-75
2023/09/09 10:52:31;;;;;;;3.60;3.30;;;;;;;;;;10357532;22;20365;-75
2023/09/09 10:56:33;;;;;;;4.85;2.97;;;;;;;;;;10383343;22;20014;-74
2023/09/09 11:00:40;;;;;;;4.53;3.00;;;;;;;;;;10382549;22;20579;-74
2023/09/09 11:04:41;;;;;;;5.47;2.72;;;;;;;;;;10387842;22;20006;-74
2023/09/09 11:08:41;;;;;;;5.23;3.17;;;;;;;;;;10391008;22;20404;-74
2023/09/09 11:12:56;;;;;;;5.18;3.45;;;;;;;;;;10389288;22;20074;-75
2023/09/09 11:16:56;;;;;;;6.18;2.90;;;;;;;;;;10390311;22;20012;-74
2023/09/09 11:20:58;;;;;;;3.37;3.00;;;;;;;;;;10390260;22;20004;-73
2023/09/09 11:24:59;;;;;;;8.15;3.00;;;;;;;;;;10391979;22;20010;-74
2023/09/09 11:28:59;;;;;;;5.20;3.20;;;;;;;;;;10391195;22;20030;-74
2023/09/09 11:32:59;;;;;;;5.20;3.20;;;;;;;;;;10386134;22;20114;-74
2023/09/09 11:37:00;;;;;;;5.53;3.00;;;;;;;;;;10384589;22;20010;-74
2023/09/09 11:41:01;;;;;;;3.40;2.90;;;;;;;;;;10384850;22;20058;-74
2023/09/09 11:45:01;;;;;;;6.73;2.63;;;;;;;;;;10387268;22;19995;-74
2023/09/09 11:49:02;;;;;;;5.93;3.42;;;;;;;;;;10381900;22;20011;-74
2023/09/09 11:53:03;;;;;;;3.20;3.00;;;;;;;;;;10381797;22;20043;-74
2023/09/09 11:57:04;;;;;;;6.67;3.00;;;;;;;;;;10385005;22;20444;-74
2023/09/09 12:01:04;;;;;;;5.93;3.13;;;;;;;;;;10386855;22;20012;-74
2023/09/09 12:05:05;;;;;;;3.73;2.90;;;;;;;;;;10385654;22;20003;-74
2023/09/09 12:09:06;;;;;;;6.53;3.07;;;;;;;;;;10386030;22;19999;-74
2023/09/09 12:13:06;;;;;;;3.90;3.10;;;;;;;;;;10362579;22;20004;-74
2023/09/09 12:17:09;;;;;;;8.07;3.20;;;;;;;;;;10386391;22;20747;-74
2023/09/09 12:21:10;;;;;;;5.68;2.88;;;;;;;;;;10386453;22;20085;-73
2023/09/09 12:25:31;;;;;;;3.65;3.10;;;;;;;;;;10385531;22;19999;-74
2023/09/09 12:29:31;;;;;;;7.10;3.13;;;;;;;;;;10387336;22;20050;-74
2023/09/09 12:33:45;;;;;;;4.70;2.93;;;;;;;;;;10385832;22;20073;-74
2023/09/09 12:37:45;;;;;;;3.10;2.63;;;;;;;;;;10387403;22;20030;-75
2023/09/09 12:41:55;;;;;;;4.03;2.60;;;;;;;;;;10386679;22;20042;-74
2023/09/09 12:46:03;;;;;;;3.80;2.90;;;;;;;;;;10386919;22;20344;-74
2023/09/09 12:50:03;;;;;;;3.80;2.80;;;;;;;;;;10380916;22;20015;-75
2023/09/09 12:54:03;;;;;;;3.43;3.10;;;;;;;;;;10385106;22;20344;-75
2023/09/09 12:58:03;;;;;;;5.70;2.90;;;;;;;;;;10385698;22;20106;-75
2023/09/09 13:02:04;;;;;;;5.13;3.10;;;;;;;;;;10381941;22;20038;-75
2023/09/09 13:06:05;;;;;;;7.47;3.60;;;;;;;;;;10385456;22;20021;-73
2023/09/09 13:10:05;;;;;;;3.63;2.77;;;;;;;;;;10381956;22;20448;-74
2023/09/09 13:14:05;;;;;;;8.07;2.73;;;;;;;;;;10385112;22;20013;-74
2023/09/09 13:18:06;;;;;;;3.53;3.03;;;;;;;;;;10381460;22;20018;-74
2023/09/09 13:22:07;;;;;;;3.72;2.85;;;;;;;;;;10384325;22;20807;-73
2023/09/09 13:26:07;;;;;;;9.23;3.05;;;;;;;;;;10384292;22;20006;-74
2023/09/09 13:30:08;;;;;;;6.55;3.03;;;;;;;;;;10383412;22;20003;-73
2023/09/09 13:34:08;;;;;;;6.07;2.83;;;;;;;;;;10389532;22;19999;-74
2023/09/09 13:38:08;;;;;;;4.07;2.83;;;;;;;;;;10384727;22;20081;-74
2023/09/09 13:42:08;;;;;;;4.27;2.60;;;;;;;;;;10385618;22;20072;-74
2023/09/09 13:46:10;;;;;;;4.28;2.90;;;;;;;;;;10391697;22;20018;-74
2023/09/09 13:50:10;;;;;;;;;;;;;;;;;;10388020;22;20014;-74
2023/09/09 13:54:11;;;;;;;4.20;2.90;;;;;;;;;;10386189;22;19903;-75
2023/09/09 13:58:11;;;;;;;7.57;2.70;;;;;;;;;;10386851;22;20045;-75
2023/09/09 14:02:11;;;;;;;3.60;2.63;;;;;;;;;;10384351;22;20749;-74
2023/09/09 14:06:12;;;;;;;3.95;2.70;;;;;;;;;;10387878;22;19999;-75
2023/09/09 14:10:12;;;;;;;4.33;2.63;;;;;;;;;;10384873;22;20007;-74
2023/09/09 14:14:17;;;;;;;3.30;2.67;;;;;;;;;;10380265;22;20010;-75
2023/09/09 14:18:18;;;;;;;5.65;2.70;;;;;;;;;;10385458;22;20023;-75
2023/09/09 14:22:18;;;;;;;5.43;2.72;;;;;;;;;;10387636;22;20007;-74
2023/09/09 14:26:19;;;;;;;3.57;2.77;;;;;;;;;;10388096;22;19999;-75
2023/09/09 14:30:20;;;;;;;4.10;2.50;;;;;;;;;;10381703;22;20671;-75
2023/09/09 14:34:21;;;;;;;3.43;2.90;;;;;;;;;;10387532;22;20811;-74
2023/09/09 14:38:21;;;;;;;4.00;2.50;;;;;;;;;;10387877;22;20261;-74
2023/09/09 14:42:22;;;;;;;3.45;2.70;;;;;;;;;;10392923;22;20003;-73
2023/09/09 14:46:27;;;;;;;3.70;2.58;;;;;;;;;;10388279;22;20029;-75
2023/09/09 14:50:27;;;;;;;5.00;2.63;;;;;;;;;;10388543;22;20357;-74
2023/09/09 14:54:27;;;;;;;4.85;2.78;;;;;;;;;;10387573;22;20003;-75
2023/09/09 14:58:28;;;;;;;4.27;3.10;;;;;;;;;;10389173;22;20070;-74
2023/09/09 15:02:29;;;;;;;5.70;2.80;;;;;;;;;;10381828;22;20480;-74
2023/09/09 15:06:29;;;;;;;5.50;3.00;;;;;;;;;;10389589;22;20225;-74
2023/09/09 15:10:32;;;;;;;3.85;2.80;;;;;;;;;;10383633;22;20037;-74
2023/09/09 15:14:33;;;;;;;4.60;2.70;;;;;;;;;;10392746;22;20006;-74
2023/09/09 15:18:35;;;;;;;4.07;2.88;;;;;;;;;;10386461;22;20106;-74
2023/09/09 15:22:35;;;;;;;6.43;2.83;;;;;;;;;;10388750;22;20003;-75
2023/09/09 15:26:36;;;;;;;3.60;2.72;;;;;;;;;;10384487;22;20003;-75
2023/09/09 15:30:36;;;;;;;3.70;2.72;;;;;;;;;;10386846;22;20011;-75
2023/09/09 15:34:37;;;;;;;2.90;2.60;;;;;;;;;;10389332;22;20453;-74
2023/09/09 15:38:41;;;;;;;4.32;2.75;;;;;;;;;;10387876;22;20050;-74
2023/09/09 15:42:41;;;;;;;5.05;2.72;;;;;;;;;;10387628;22;20238;-74
2023/09/09 15:46:41;;;;;;;4.17;2.90;;;;;;;;;;10385136;22;20090;-74
2023/09/09 15:50:41;;;;;;;4.22;2.72;;;;;;;;;;10383722;22;20011;-74
2023/09/09 15:54:42;;;;;;;3.20;2.90;;;;;;;;;;10385229;22;20106;-74
2023/09/09 15:58:42;;;;;;;3.77;2.73;;;;;;;;;;10390919;22;20818;-74
2023/09/09 16:02:42;;;;;;;4.97;2.97;;;;;;;;;;10383852;22;20066;-74
2023/09/09 16:06:42;;;;;;;5.65;2.92;;;;;;;;;;10386901;22;20222;-74
2023/09/09 16:10:43;;;;;;;3.63;2.90;;;;;;;;;;10382197;22;20041;-75
2023/09/09 16:14:43;;;;;;;4.33;2.60;;;;;;;;;;10385530;22;19999;-74
2023/09/09 16:18:43;;;;;;;3.28;2.97;;;;;;;;;;10384873;22;20394;-74
2023/09/09 16:22:45;;;;;;;6.13;2.63;;;;;;;;;;10383653;22;20155;-75
2023/09/09 16:26:45;;;;;;;5.97;3.20;;;;;;;;;;10383739;22;20009;-75
2023/09/09 16:30:45;;;;;;;5.80;3.13;;;;;;;;;;10384785;22;20440;-74
2023/09/09 16:34:45;;;;;;;5.50;2.70;;;;;;;;;;10368751;22;20007;-74
2023/09/09 16:38:46;;;;;;;3.33;2.95;;;;;;;;;;10385346;22;20014;-74
2023/09/09 16:42:46;;;;;;;3.33;2.80;;;;;;;;;;10384939;22;20009;-74
2023/09/09 16:46:46;;;;;;;2.80;2.60;;;;;;;;;;10387605;22;20820;-75
2023/09/09 16:50:47;;;;;;;4.13;2.75;;;;;;;;;;10386991;22;20015;-75
2023/09/09 16:54:48;;;;;;;2.88;2.67;;;;;;;;;;10388632;22;20033;-74
2023/09/09 16:58:48;;;;;;;3.03;2.70;;;;;;;;;;10388335;22;20018;-74
2023/09/09 17:02:48;;;;;;;3.75;2.92;;;;;;;;;;10385475;22;20007;-74
2023/09/09 17:06:49;;;;;;;6.55;4.65;;;;;;;;;;10384315;22;20625;-74
2023/09/09 17:10:51;;;;;;;5.72;3.80;;;;;;;;;;10387598;22;20070;-74
2023/09/09 17:14:51;;;;;;;4.13;3.72;;;;;;;;;;10389345;22;20110;-74
2023/09/09 17:18:51;;;;;;;3.85;3.25;;;;;;;;;;10386970;22;20015;-74
2023/09/09 17:22:51;;;;;;;6.50;3.65;;;;;;;;;;10385564;22;20715;-74
2023/09/09 17:26:52;;;;;;;4.35;3.30;;;;;;;;;;10389533;22;20375;-74
2023/09/09 17:30:52;;;;;;;4.03;3.28;;;;;;;;;;10386195;22;20011;-74
2023/09/09 17:34:52;;;;;;;4.30;3.40;;;;;;;;;;10385235;22;19995;-74
2023/09/09 17:39:19;;;;;;;5.68;3.28;;;;;;;;;;10388245;22;20016;-74
2023/09/09 17:43:19;;;;;;;6.72;3.00;;;;;;;;;;10387038;22;20003;-74
2023/09/09 17:47:20;;;;;;;3.78;3.22;;;;;;;;;;10391369;22;20011;-73
2023/09/09 17:51:21;;;;;;;3.42;3.08;;;;;;;;;;10386632;22;20011;-73
2023/09/09 17:55:21;;;;;;;3.90;3.05;;;;;;;;;;10389031;22;20018;-73
2023/09/09 17:59:21;;;;;;;4.80;3.20;;;;;;;;;;10392164;22;20010;-73
2023/09/09 18:03:22;;;;;;;3.40;3.10;;;;;;;;;;10388377;22;20077;-74
2023/09/09 18:07:23;;;;;;;4.63;3.15;;;;;;;;;;10393144;22;20666;-73
2023/09/09 18:11:26;;;;;;;5.82;3.17;;;;;;;;;;10392516;22;20072;-74
2023/09/09 18:15:26;;;;;;;;;;;;;;;;;;10394311;22;20022;-73
2023/09/09 18:19:27;;;;;;;5.00;3.20;;;;;;;;;;10395613;22;19903;-73
2023/09/09 18:23:27;;;;;;;6.53;3.90;;;;;;;;;;10395260;22;19995;-73
2023/09/09 18:27:27;;;;;;;6.17;3.53;;;;;;;;;;10394093;22;20010;-74
2023/09/09 18:31:28;;;;;;;4.60;4.10;;;;;;;;;;10394674;22;20265;-74
2023/09/09 18:35:28;;;;;;;8.18;4.18;;;;;;;;;;10392431;22;20009;-74
2023/09/09 18:39:30;;;;;;;5.17;3.70;;;;;;;;;;10392238;22;20011;-74
2023/09/09 18:43:30;;;;;;;12.60;4.38;;;;;;;;;;10395680;22;20027;-73
2023/09/09 18:47:31;;;;;;;9.07;5.07;;;;;;;;;;10393520;22;20019;-73
2023/09/09 18:51:31;;;;;;;9.93;4.82;;;;;;;;;;10393386;22;20594;-73
2023/09/09 18:55:31;;;;;;;7.38;4.55;;;;;;;;;;10394193;22;20003;-75
2023/09/09 18:59:32;;;;;;;11.98;4.57;;;;;;;;;;10391317;22;20014;-73
2023/09/09 19:03:33;;;;;;;8.02;4.55;;;;;;;;;;10390324;22;20482;-74
2023/09/09 19:07:34;;;;;;;6.00;4.18;;;;;;;;;;10393271;22;20007;-74
2023/09/09 19:11:34;;;;;;;6.55;4.20;;;;;;;;;;10374836;22;20058;-74
2023/09/09 19:15:35;;;;;;;8.45;3.88;;;;;;;;;;10390428;22;20030;-74
2023/09/09 19:19:35;;;;;;;8.88;3.65;;;;;;;;;;10391789;22;20102;-74
2023/09/09 19:23:36;;;;;;;6.15;4.03;;;;;;;;;;10389071;22;20681;-74
2023/09/09 19:27:36;;;;;;;6.45;4.00;;;;;;;;;;10392450;22;20000;-75
2023/09/09 19:31:37;;;;;;;4.17;3.67;;;;;;;;;;10386672;22;20042;-74
2023/09/09 19:35:37;;;;;;;4.70;3.90;;;;;;;;;;10389474;22;20884;-74
2023/09/09 19:39:37;;;;;;;8.82;4.00;;;;;;;;;;10387923;22;20022;-75
2023/09/09 19:43:38;;;;;;;5.77;4.17;;;;;;;;;;10386915;22;19999;-75
2023/09/09 19:47:38;;;;;;;5.97;4.10;;;;;;;;;;10390481;22;21228;-75
2023/09/09 19:51:39;;;;;;;5.50;4.20;;;;;;;;;;10387963;22;20491;-75
2023/09/09 19:55:39;;;;;;;6.95;3.60;;;;;;;;;;10391049;22;20003;-74
2023/09/09 19:59:40;;;;;;;7.32;4.63;;;;;;;;;;10392712;22;20053;-74
2023/09/09 20:03:40;;;;;;;7.23;4.37;;;;;;;;;;10391662;22;21052;-74
2023/09/09 20:07:40;;;;;;;5.88;4.07;;;;;;;;;;10392366;22;20229;-74
2023/09/09 20:11:40;;;;;;;8.57;6.68;;;;;;;;;;10394900;22;19996;-73
2023/09/09 20:15:42;;;;;;;8.73;6.40;;;;;;;;;;10390652;22;20094;-73
2023/09/09 20:19:43;;;;;;;6.63;5.93;;;;;;;;;;10387969;22;20008;-73
2023/09/09 20:23:43;;;;;;;7.15;4.55;;;;;;;;;;10392274;22;20027;-74
2023/09/09 20:27:49;;;;;;;6.05;4.07;;;;;;;;;;10393473;22;20343;-73
2023/09/09 20:31:52;;;;;;;6.85;4.50;;;;;;;;;;10393048;22;20034;-74
2023/09/09 20:35:52;;;;;;;5.78;4.50;;;;;;;;;;10396337;22;19999;-74
2023/09/09 20:39:53;;;;;;;5.03;4.47;;;;;;;;;;10393058;22;20125;-73
2023/09/09 20:43:53;;;;;;;4.93;4.28;;;;;;;;;;10393634;22;20000;-73
2023/09/09 20:47:54;;;;;;;6.03;4.00;;;;;;;;;;10393844;22;20022;-73
2023/09/09 20:51:54;;;;;;;6.82;4.07;;;;;;;;;;10394538;22;20011;-74
2023/09/09 20:55:54;;;;;;;6.45;4.55;;;;;;;;;;10396524;22;19999;-74
2023/09/09 20:59:54;;;;;;;6.43;4.43;;;;;;;;;;10393283;22;20373;-74
2023/09/09 21:03:55;;;;;;;5.87;5.10;;;;;;;;;;10391221;22;20022;-74
2023/09/09 21:07:55;;;;;;;7.40;5.40;;;;;;;;;;10395435;22;20241;-74
2023/09/09 21:11:55;;;;;;;6.60;5.87;;;;;;;;;;10370799;22;20035;-74
2023/09/09 21:15:55;;;;;;;6.55;5.40;;;;;;;;;;10392301;22;20357;-74
2023/09/09 21:19:55;;;;;;;8.20;4.60;;;;;;;;;;10394759;22;20094;-74
2023/09/09 21:23:56;;;;;;;6.07;4.00;;;;;;;;;;10394669;22;20007;-74
2023/09/09 21:27:57;;;;;;;4.50;3.75;;;;;;;;;;10394898;22;20007;-74
2023/09/09 21:31:58;;;;;;;4.32;3.78;;;;;;;;;;10394512;22;20118;-74
2023/09/09 21:35:58;;;;;;;6.22;4.20;;;;;;;;;;10396061;22;20051;-74
2023/09/09 21:40:00;;;;;;;4.93;4.05;;;;;;;;;;10394853;22;20015;-73
2023/09/09 21:44:00;;;;;;;6.63;4.30;;;;;;;;;;10395490;22;20099;-74
2023/09/09 21:48:00;;;;;;;5.93;4.10;;;;;;;;;;10393207;22;20527;-73
2023/09/09 21:52:00;;;;;;;4.93;3.80;;;;;;;;;;10394729;22;20691;-74
2023/09/09 21:56:00;;;;;;;4.78;4.28;;;;;;;;;;10393310;22;20001;-74
2023/09/09 22:00:01;;;;;;;6.10;4.47;;;;;;;;;;10388743;22;20038;-73
2023/09/09 22:04:02;;;;;;;8.43;4.70;;;;;;;;;;10393303;22;20030;-73
2023/09/09 22:08:04;;;;;;;9.25;4.65;;;;;;;;;;10393667;22;19991;-74
2023/09/09 22:12:04;;;;;;;6.05;4.97;;;;;;;;;;10392788;22;20052;-73
2023/09/09 22:16:08;;;;;;;5.50;4.73;;;;;;;;;;10392328;22;20008;-73
2023/09/09 22:20:08;;;;;;;5.32;4.75;;;;;;;;;;10393350;22;20281;-73
2023/09/09 22:24:09;;;;;;;6.15;4.82;;;;;;;;;;10390378;22;20010;-73
2023/09/09 22:28:09;;;;;;;6.05;4.97;;;;;;;;;;10393228;22;20042;-73
2023/09/09 22:32:09;;;;;;;6.57;4.47;;;;;;;;;;10391354;22;20012;-73
2023/09/09 22:36:09;;;;;;;4.90;4.40;;;;;;;;;;10393468;22;20023;-73
2023/09/09 22:40:10;;;;;;;6.45;3.88;;;;;;;;;;10387118;22;20011;-73
2023/09/09 22:44:10;;;;;;;7.68;4.05;;;;;;;;;;10390639;22;20150;-73
2023/09/09 22:48:12;;;;;;;4.43;4.03;;;;;;;;;;10390546;22;20014;-74
2023/09/09 22:52:12;;;;;;;4.35;3.60;;;;;;;;;;10388099;22;20099;-74
2023/09/09 22:56:13;;;;;;;5.72;3.92;;;;;;;;;;10389419;22;20007;-73
2023/09/09 23:00:13;;;;;;;4.00;3.50;;;;;;;;;;10391248;22;20597;-74
2023/09/09 23:04:14;;;;;;;4.43;3.72;;;;;;;;;;10393601;22;19988;-74
2023/09/09 23:08:14;;;;;;;4.82;4.15;;;;;;;;;;10394143;22;20052;-74
2023/09/09 23:12:14;;;;;;;8.27;4.38;;;;;;;;;;10391724;22;20010;-74
2023/09/09 23:16:15;;;;;;;6.00;4.50;;;;;;;;;;10392557;22;20015;-74
2023/09/09 23:20:15;;;;;;;8.30;4.88;;;;;;;;;;10386363;22;20015;-74
2023/09/09 23:24:15;;;;;;;5.63;4.30;;;;;;;;;;10378741;22;20042;-74
2023/09/09 23:28:17;;;;;;;5.18;3.80;;;;;;;;;;10392551;22;20023;-74
2023/09/09 23:32:17;;;;;;;4.72;4.22;;;;;;;;;;10390867;22;20104;-74
2023/09/09 23:36:18;;;;;;;7.32;4.20;;;;;;;;;;10393059;22;20011;-74
2023/09/09 23:40:21;;;;;;;9.32;4.28;;;;;;;;;;10393864;22;20007;-74
2023/09/09 23:44:22;;;;;;;;;;;;;;;;;;10392153;22;20092;-74